sensor_id;sensor_type;location;lat;lon;timestamp;temperature;humidity
68813;DHT22;55808;48.112;11.552;2023-03-21T00:00:13;8.00;99.90
68813;DHT22;55808;48.112;11.552;2023-03-21T00:02:40;7.90;99.90
68813;DHT22;55808;48.112;11.552;2023-03-21T00:05:05;7.90;99.90
68813;DHT22;55808;48.112;11.552;2023-03-21T00:07:31;7.90;99.90
68813;DHT22;55808;48.112;11.552;2023-03-21T00:09:58;7.80;99.90
68813;DHT22;55808;48.112;11.552;2023-03-21T00:12:24;7.90;99.90
68813;DHT22;55808;48.112;11.552;2023-03-21T00:14:50;7.90;99.90
68813;DHT22;55808;48.112;11.552;2023-03-21T00:17:18;7.80;99.90
68813;DHT22;55808;48.112;11.552;2023-03-21T00:19:46;7.80;99.90
68813;DHT22;55808;48.112;11.552;2023-03-21T00:22:13;7.90;99.90
68813;DHT22;55808;48.112;11.552;2023-03-21T00:24:38;7.90;99.90
68813;DHT22;55808;48.112;11.552;2023-03-21T00:27:04;7.90;99.90
68813;DHT22;55808;48.112;11.552;2023-03-21T00:29:29;7.90;99.90
68813;DHT22;55808;48.112;11.552;2023-03-21T00:31:55;7.90;99.90
68813;DHT22;55808;48.112;11.552;2023-03-21T00:34:20;7.90;99.90
68813;DHT22;55808;48.112;11.552;2023-03-21T00:36:46;7.90;99.90
68813;DHT22;55808;48.112;11.552;2023-03-21T00:39:11;7.90;99.90
68813;DHT22;55808;48.112;11.552;2023-03-21T00:41:38;7.90;99.90
68813;DHT22;55808;48.112;11.552;2023-03-21T00:44:04;7.90;99.90
68813;DHT22;55808;48.112;11.552;2023-03-21T00:46:29;7.90;99.90
68813;DHT22;55808;48.112;11.552;2023-03-21T00:48:55;8.00;99.90
68813;DHT22;55808;48.112;11.552;2023-03-21T00:51:21;8.00;99.90
68813;DHT22;55808;48.112;11.552;2023-03-21T00:53:54;7.90;99.90
68813;DHT22;55808;48.112;11.552;2023-03-21T00:56:20;8.00;99.90
68813;DHT22;55808;48.112;11.552;2023-03-21T00:58:45;8.10;99.90
68813;DHT22;55808;48.112;11.552;2023-03-21T01:01:11;7.90;99.90
68813;DHT22;55808;48.112;11.552;2023-03-21T01:03:36;8.00;99.90
68813;DHT22;55808;48.112;11.552;2023-03-21T01:06:08;8.00;99.90
68813;DHT22;55808;48.112;11.552;2023-03-21T01:08:35;8.00;99.90
68813;DHT22;55808;48.112;11.552;2023-03-21T01:11:02;7.90;99.90
68813;DHT22;55808;48.112;11.552;2023-03-21T01:13:28;8.00;99.90
68813;DHT22;55808;48.112;11.552;2023-03-21T01:15:57;8.00;99.90
68813;DHT22;55808;48.112;11.552;2023-03-21T01:18:23;8.10;99.90
68813;DHT22;55808;48.112;11.552;2023-03-21T01:20:51;8.10;99.90
68813;DHT22;55808;48.112;11.552;2023-03-21T01:23:16;8.10;99.90
68813;DHT22;55808;48.112;11.552;2023-03-21T01:25:42;8.10;99.90
68813;DHT22;55808;48.112;11.552;2023-03-21T01:28:08;8.10;99.90
68813;DHT22;55808;48.112;11.552;2023-03-21T01:30:36;8.10;99.90
68813;DHT22;55808;48.112;11.552;2023-03-21T01:33:02;8.10;99.90
68813;DHT22;55808;48.112;11.552;2023-03-21T01:35:27;8.10;99.90
68813;DHT22;55808;48.112;11.552;2023-03-21T01:37:53;8.10;99.90
68813;DHT22;55808;48.112;11.552;2023-03-21T01:40:23;8.10;99.90
68813;DHT22;55808;48.112;11.552;2023-03-21T01:42:48;8.10;99.90
68813;DHT22;55808;48.112;11.552;2023-03-21T01:47:58;8.10;99.90
68813;DHT22;55808;48.112;11.552;2023-03-21T01:50:25;8.20;99.90
68813;DHT22;55808;48.112;11.552;2023-03-21T01:52:51;8.10;99.90
68813;DHT22;55808;48.112;11.552;2023-03-21T01:55:16;8.10;99.90
68813;DHT22;55808;48.112;11.552;2023-03-21T01:57:45;8.20;99.90
68813;DHT22;55808;48.112;11.552;2023-03-21T02:00:11;8.20;99.90
68813;DHT22;55808;48.112;11.552;2023-03-21T02:02:41;8.10;99.90
68813;DHT22;55808;48.112;11.552;2023-03-21T02:05:43;8.10;99.90
68813;DHT22;55808;48.112;11.552;2023-03-21T02:08:05;8.00;99.90
68813;DHT22;55808;48.112;11.552;2023-03-21T02:10:32;8.00;99.90
68813;DHT22;55808;48.112;11.552;2023-03-21T02:12:59;8.00;99.90
68813;DHT22;55808;48.112;11.552;2023-03-21T02:15:32;8.10;99.90
68813;DHT22;55808;48.112;11.552;2023-03-21T02:18:02;8.10;99.90
68813;DHT22;55808;48.112;11.552;2023-03-21T02:28:39;8.10;99.90
68813;DHT22;55808;48.112;11.552;2023-03-21T02:36:26;8.00;99.90
68813;DHT22;55808;48.112;11.552;2023-03-21T02:39:08;8.00;99.90
68813;DHT22;55808;48.112;11.552;2023-03-21T02:47:06;8.10;99.90
68813;DHT22;55808;48.112;11.552;2023-03-21T02:49:34;8.00;99.90
68813;DHT22;55808;48.112;11.552;2023-03-21T02:52:02;8.00;99.90
68813;DHT22;55808;48.112;11.552;2023-03-21T02:54:30;8.00;99.90
68813;DHT22;55808;48.112;11.552;2023-03-21T02:56:57;8.00;99.90
68813;DHT22;55808;48.112;11.552;2023-03-21T02:59:23;8.00;99.90
68813;DHT22;55808;48.112;11.552;2023-03-21T03:01:50;8.00;99.90
68813;DHT22;55808;48.112;11.552;2023-03-21T03:04:17;8.00;99.90
68813;DHT22;55808;48.112;11.552;2023-03-21T03:07:04;8.00;99.90
68813;DHT22;55808;48.112;11.552;2023-03-21T03:19:35;8.00;99.90
68813;DHT22;55808;48.112;11.552;2023-03-21T03:22:08;7.90;99.90
68813;DHT22;55808;48.112;11.552;2023-03-21T03:24:38;7.90;99.90
68813;DHT22;55808;48.112;11.552;2023-03-21T03:27:12;7.90;99.90
68813;DHT22;55808;48.112;11.552;2023-03-21T03:29:41;7.90;99.90
68813;DHT22;55808;48.112;11.552;2023-03-21T03:32:16;7.90;99.90
68813;DHT22;55808;48.112;11.552;2023-03-21T03:34:43;7.90;99.90
68813;DHT22;55808;48.112;11.552;2023-03-21T03:37:13;7.90;99.90
68813;DHT22;55808;48.112;11.552;2023-03-21T03:39:42;7.90;99.90
68813;DHT22;55808;48.112;11.552;2023-03-21T03:42:14;8.00;99.90
68813;DHT22;55808;48.112;11.552;2023-03-21T03:44:41;7.90;99.90
68813;DHT22;55808;48.112;11.552;2023-03-21T03:47:08;7.90;99.90
68813;DHT22;55808;48.112;11.552;2023-03-21T03:49:40;7.80;99.90
68813;DHT22;55808;48.112;11.552;2023-03-21T03:52:09;7.80;99.90
68813;DHT22;55808;48.112;11.552;2023-03-21T03:54:37;7.80;99.90
68813;DHT22;55808;48.112;11.552;2023-03-21T03:57:03;7.90;99.90
68813;DHT22;55808;48.112;11.552;2023-03-21T03:59:32;7.70;99.90
68813;DHT22;55808;48.112;11.552;2023-03-21T04:01:58;7.70;99.90
68813;DHT22;55808;48.112;11.552;2023-03-21T04:04:23;7.70;99.90
68813;DHT22;55808;48.112;11.552;2023-03-21T04:06:53;7.70;99.90
68813;DHT22;55808;48.112;11.552;2023-03-21T04:09:19;7.70;99.90
68813;DHT22;55808;48.112;11.552;2023-03-21T04:11:45;7.70;99.90
68813;DHT22;55808;48.112;11.552;2023-03-21T04:14:11;7.60;99.90
68813;DHT22;55808;48.112;11.552;2023-03-21T04:16:36;7.70;99.90
68813;DHT22;55808;48.112;11.552;2023-03-21T04:19:03;7.80;99.90
68813;DHT22;55808;48.112;11.552;2023-03-21T04:21:28;7.80;99.90
68813;DHT22;55808;48.112;11.552;2023-03-21T04:23:54;7.90;99.90
68813;DHT22;55808;48.112;11.552;2023-03-21T04:26:20;8.10;99.90
68813;DHT22;55808;48.112;11.552;2023-03-21T04:28:46;7.90;99.90
68813;DHT22;55808;48.112;11.552;2023-03-21T04:31:12;7.90;99.90
68813;DHT22;55808;48.112;11.552;2023-03-21T04:33:38;7.80;99.90
68813;DHT22;55808;48.112;11.552;2023-03-21T04:36:04;7.90;99.90
68813;DHT22;55808;48.112;11.552;2023-03-21T04:38:31;7.80;99.90
68813;DHT22;55808;48.112;11.552;2023-03-21T04:40:56;7.80;99.90
68813;DHT22;55808;48.112;11.552;2023-03-21T04:43:22;7.80;99.90
68813;DHT22;55808;48.112;11.552;2023-03-21T04:45:48;7.80;99.90
68813;DHT22;55808;48.112;11.552;2023-03-21T04:48:14;7.80;99.90
68813;DHT22;55808;48.112;11.552;2023-03-21T04:50:40;7.80;99.90
68813;DHT22;55808;48.112;11.552;2023-03-21T04:53:05;7.80;99.90
68813;DHT22;55808;48.112;11.552;2023-03-21T04:55:31;7.70;99.90
68813;DHT22;55808;48.112;11.552;2023-03-21T04:57:57;7.70;99.90
68813;DHT22;55808;48.112;11.552;2023-03-21T05:00:22;7.60;99.90
68813;DHT22;55808;48.112;11.552;2023-03-21T05:02:49;7.60;99.90
68813;DHT22;55808;48.112;11.552;2023-03-21T05:05:15;7.60;99.90
68813;DHT22;55808;48.112;11.552;2023-03-21T05:07:41;7.60;99.90
68813;DHT22;55808;48.112;11.552;2023-03-21T05:10:07;7.50;99.90
68813;DHT22;55808;48.112;11.552;2023-03-21T05:12:33;7.50;99.90
68813;DHT22;55808;48.112;11.552;2023-03-21T05:14:59;7.60;99.90
68813;DHT22;55808;48.112;11.552;2023-03-21T05:17:24;7.60;99.90
68813;DHT22;55808;48.112;11.552;2023-03-21T05:19:52;7.70;99.90
68813;DHT22;55808;48.112;11.552;2023-03-21T05:22:21;7.60;99.90
68813;DHT22;55808;48.112;11.552;2023-03-21T05:24:49;7.60;99.90
68813;DHT22;55808;48.112;11.552;2023-03-21T05:27:15;7.60;99.90
68813;DHT22;55808;48.112;11.552;2023-03-21T05:29:59;7.70;99.90
68813;DHT22;55808;48.112;11.552;2023-03-21T05:32:25;7.70;99.90
68813;DHT22;55808;48.112;11.552;2023-03-21T05:34:50;7.70;99.90
68813;DHT22;55808;48.112;11.552;2023-03-21T05:37:16;7.70;99.90
68813;DHT22;55808;48.112;11.552;2023-03-21T05:39:41;7.80;99.90
68813;DHT22;55808;48.112;11.552;2023-03-21T05:42:07;7.70;99.90
68813;DHT22;55808;48.112;11.552;2023-03-21T05:44:33;7.70;99.90
68813;DHT22;55808;48.112;11.552;2023-03-21T05:46:58;7.70;99.90
68813;DHT22;55808;48.112;11.552;2023-03-21T05:49:24;7.70;99.90
68813;DHT22;55808;48.112;11.552;2023-03-21T05:51:50;7.70;99.90
68813;DHT22;55808;48.112;11.552;2023-03-21T05:54:16;7.60;99.90
68813;DHT22;55808;48.112;11.552;2023-03-21T05:56:41;7.70;99.90
68813;DHT22;55808;48.112;11.552;2023-03-21T05:59:07;7.70;99.90
68813;DHT22;55808;48.112;11.552;2023-03-21T06:01:32;7.80;99.90
68813;DHT22;55808;48.112;11.552;2023-03-21T06:03:58;7.80;99.90
68813;DHT22;55808;48.112;11.552;2023-03-21T06:06:23;7.90;99.90
68813;DHT22;55808;48.112;11.552;2023-03-21T06:08:49;7.90;99.90
68813;DHT22;55808;48.112;11.552;2023-03-21T06:11:34;7.90;99.90
68813;DHT22;55808;48.112;11.552;2023-03-21T06:14:00;8.00;99.90
68813;DHT22;55808;48.112;11.552;2023-03-21T06:16:26;8.00;99.90
68813;DHT22;55808;48.112;11.552;2023-03-21T06:18:53;8.00;99.90
68813;DHT22;55808;48.112;11.552;2023-03-21T06:21:19;8.00;99.90
68813;DHT22;55808;48.112;11.552;2023-03-21T06:23:45;8.10;99.90
68813;DHT22;55808;48.112;11.552;2023-03-21T06:26:11;8.10;99.90
68813;DHT22;55808;48.112;11.552;2023-03-21T06:28:37;8.20;99.90
68813;DHT22;55808;48.112;11.552;2023-03-21T06:31:02;8.20;99.90
68813;DHT22;55808;48.112;11.552;2023-03-21T06:33:28;8.20;99.90
68813;DHT22;55808;48.112;11.552;2023-03-21T06:35:54;8.30;99.90
68813;DHT22;55808;48.112;11.552;2023-03-21T06:38:20;8.40;99.90
68813;DHT22;55808;48.112;11.552;2023-03-21T06:40:45;8.40;99.90
68813;DHT22;55808;48.112;11.552;2023-03-21T06:43:11;8.40;99.90
68813;DHT22;55808;48.112;11.552;2023-03-21T06:45:37;8.40;99.90
68813;DHT22;55808;48.112;11.552;2023-03-21T06:48:02;8.50;99.90
68813;DHT22;55808;48.112;11.552;2023-03-21T06:50:28;8.50;99.90
68813;DHT22;55808;48.112;11.552;2023-03-21T06:52:53;8.50;99.90
68813;DHT22;55808;48.112;11.552;2023-03-21T06:55:21;8.50;99.90
68813;DHT22;55808;48.112;11.552;2023-03-21T06:57:54;8.60;99.90
68813;DHT22;55808;48.112;11.552;2023-03-21T07:00:20;8.60;99.90
68813;DHT22;55808;48.112;11.552;2023-03-21T07:02:46;8.60;99.90
68813;DHT22;55808;48.112;11.552;2023-03-21T07:05:12;8.70;99.90
68813;DHT22;55808;48.112;11.552;2023-03-21T07:07:37;8.70;99.90
68813;DHT22;55808;48.112;11.552;2023-03-21T07:10:03;8.60;99.90
68813;DHT22;55808;48.112;11.552;2023-03-21T07:12:29;8.70;99.90
68813;DHT22;55808;48.112;11.552;2023-03-21T07:14:58;8.90;99.90
68813;DHT22;55808;48.112;11.552;2023-03-21T07:17:24;8.90;99.90
68813;DHT22;55808;48.112;11.552;2023-03-21T07:19:49;8.70;99.90
68813;DHT22;55808;48.112;11.552;2023-03-21T07:22:15;8.80;99.90
68813;DHT22;55808;48.112;11.552;2023-03-21T07:24:40;8.80;99.90
68813;DHT22;55808;48.112;11.552;2023-03-21T07:27:06;8.80;99.90
68813;DHT22;55808;48.112;11.552;2023-03-21T07:29:32;8.90;99.90
68813;DHT22;55808;48.112;11.552;2023-03-21T07:31:57;8.90;99.90
68813;DHT22;55808;48.112;11.552;2023-03-21T07:34:23;9.00;99.90
68813;DHT22;55808;48.112;11.552;2023-03-21T07:36:48;9.00;99.90
68813;DHT22;55808;48.112;11.552;2023-03-21T07:39:13;9.00;99.90
68813;DHT22;55808;48.112;11.552;2023-03-21T07:41:39;9.00;99.90
68813;DHT22;55808;48.112;11.552;2023-03-21T07:44:05;9.10;99.90
68813;DHT22;55808;48.112;11.552;2023-03-21T07:46:30;9.20;99.90
68813;DHT22;55808;48.112;11.552;2023-03-21T07:48:56;9.20;99.90
68813;DHT22;55808;48.112;11.552;2023-03-21T07:51:21;9.20;99.90
68813;DHT22;55808;48.112;11.552;2023-03-21T07:53:47;9.30;99.90
68813;DHT22;55808;48.112;11.552;2023-03-21T07:56:13;9.40;99.90
68813;DHT22;55808;48.112;11.552;2023-03-21T07:58:40;9.30;99.90
68813;DHT22;55808;48.112;11.552;2023-03-21T08:01:05;9.40;99.90
68813;DHT22;55808;48.112;11.552;2023-03-21T08:03:31;9.40;99.90
68813;DHT22;55808;48.112;11.552;2023-03-21T08:05:58;9.50;99.90
68813;DHT22;55808;48.112;11.552;2023-03-21T08:08:24;9.70;99.90
68813;DHT22;55808;48.112;11.552;2023-03-21T08:10:51;9.80;99.90
68813;DHT22;55808;48.112;11.552;2023-03-21T08:13:20;9.60;99.90
68813;DHT22;55808;48.112;11.552;2023-03-21T08:15:47;9.60;99.90
68813;DHT22;55808;48.112;11.552;2023-03-21T08:18:18;9.60;99.90
68813;DHT22;55808;48.112;11.552;2023-03-21T08:20:50;9.60;99.90
68813;DHT22;55808;48.112;11.552;2023-03-21T08:23:16;9.60;99.90
68813;DHT22;55808;48.112;11.552;2023-03-21T08:25:42;9.70;99.90
68813;DHT22;55808;48.112;11.552;2023-03-21T08:28:07;9.90;99.90
68813;DHT22;55808;48.112;11.552;2023-03-21T08:30:33;9.80;99.90
68813;DHT22;55808;48.112;11.552;2023-03-21T08:32:58;9.90;99.90
68813;DHT22;55808;48.112;11.552;2023-03-21T08:35:24;9.80;99.90
68813;DHT22;55808;48.112;11.552;2023-03-21T08:37:50;9.80;99.90
68813;DHT22;55808;48.112;11.552;2023-03-21T08:40:16;9.90;99.90
68813;DHT22;55808;48.112;11.552;2023-03-21T08:42:42;9.90;99.90
68813;DHT22;55808;48.112;11.552;2023-03-21T08:45:08;10.00;99.90
68813;DHT22;55808;48.112;11.552;2023-03-21T08:47:34;10.10;99.90
68813;DHT22;55808;48.112;11.552;2023-03-21T08:49:59;10.10;99.90
68813;DHT22;55808;48.112;11.552;2023-03-21T08:52:25;10.20;99.90
68813;DHT22;55808;48.112;11.552;2023-03-21T08:54:52;10.20;99.90
68813;DHT22;55808;48.112;11.552;2023-03-21T08:57:17;10.30;99.90
68813;DHT22;55808;48.112;11.552;2023-03-21T08:59:43;10.40;99.90
68813;DHT22;55808;48.112;11.552;2023-03-21T09:02:09;10.50;99.90
68813;DHT22;55808;48.112;11.552;2023-03-21T09:04:35;10.70;99.90
68813;DHT22;55808;48.112;11.552;2023-03-21T09:07:01;10.80;99.90
68813;DHT22;55808;48.112;11.552;2023-03-21T09:09:29;10.80;99.90
68813;DHT22;55808;48.112;11.552;2023-03-21T09:11:55;10.80;99.90
68813;DHT22;55808;48.112;11.552;2023-03-21T09:14:20;10.80;99.90
68813;DHT22;55808;48.112;11.552;2023-03-21T09:16:46;10.90;99.90
68813;DHT22;55808;48.112;11.552;2023-03-21T09:19:11;10.90;99.90
68813;DHT22;55808;48.112;11.552;2023-03-21T09:21:37;11.00;99.90
68813;DHT22;55808;48.112;11.552;2023-03-21T09:24:03;11.10;99.90
68813;DHT22;55808;48.112;11.552;2023-03-21T09:26:30;11.10;99.90
68813;DHT22;55808;48.112;11.552;2023-03-21T09:28:56;11.10;99.90
68813;DHT22;55808;48.112;11.552;2023-03-21T09:31:23;11.20;99.90
68813;DHT22;55808;48.112;11.552;2023-03-21T09:33:49;11.20;99.90
68813;DHT22;55808;48.112;11.552;2023-03-21T09:36:15;11.30;99.90
68813;DHT22;55808;48.112;11.552;2023-03-21T09:38:41;11.50;99.90
68813;DHT22;55808;48.112;11.552;2023-03-21T09:46:40;11.40;99.90
68813;DHT22;55808;48.112;11.552;2023-03-21T09:49:17;11.60;99.90
68813;DHT22;55808;48.112;11.552;2023-03-21T09:51:45;11.50;99.90
68813;DHT22;55808;48.112;11.552;2023-03-21T09:54:26;11.60;99.90
68813;DHT22;55808;48.112;11.552;2023-03-21T09:56:55;11.80;99.90
68813;DHT22;55808;48.112;11.552;2023-03-21T09:59:36;12.10;99.90
68813;DHT22;55808;48.112;11.552;2023-03-21T10:02:20;12.20;99.90
68813;DHT22;55808;48.112;11.552;2023-03-21T10:04:57;12.10;99.90
68813;DHT22;55808;48.112;11.552;2023-03-21T10:07:23;12.40;99.90
68813;DHT22;55808;48.112;11.552;2023-03-21T10:09:50;12.30;99.90
68813;DHT22;55808;48.112;11.552;2023-03-21T10:12:19;12.30;99.90
68813;DHT22;55808;48.112;11.552;2023-03-21T10:14:47;12.50;99.90
68813;DHT22;55808;48.112;11.552;2023-03-21T10:19:41;12.40;99.90
68813;DHT22;55808;48.112;11.552;2023-03-21T10:22:10;12.20;99.90
68813;DHT22;55808;48.112;11.552;2023-03-21T10:24:36;12.30;99.90
68813;DHT22;55808;48.112;11.552;2023-03-21T10:27:02;12.40;99.90
68813;DHT22;55808;48.112;11.552;2023-03-21T10:29:37;12.50;99.90
68813;DHT22;55808;48.112;11.552;2023-03-21T10:32:07;12.70;99.90
68813;DHT22;55808;48.112;11.552;2023-03-21T10:34:37;13.00;99.90
68813;DHT22;55808;48.112;11.552;2023-03-21T10:37:05;13.30;99.90
68813;DHT22;55808;48.112;11.552;2023-03-21T10:39:41;13.30;99.90
68813;DHT22;55808;48.112;11.552;2023-03-21T10:44:42;13.50;99.90
68813;DHT22;55808;48.112;11.552;2023-03-21T10:47:11;13.50;99.90
68813;DHT22;55808;48.112;11.552;2023-03-21T10:49:36;13.70;99.90
68813;DHT22;55808;48.112;11.552;2023-03-21T10:52:04;13.60;99.90
68813;DHT22;55808;48.112;11.552;2023-03-21T10:54:32;13.50;99.90
68813;DHT22;55808;48.112;11.552;2023-03-21T10:57:02;13.20;99.90
68813;DHT22;55808;48.112;11.552;2023-03-21T10:59:34;13.40;99.90
68813;DHT22;55808;48.112;11.552;2023-03-21T11:02:01;13.40;99.90
68813;DHT22;55808;48.112;11.552;2023-03-21T11:04:27;13.50;99.90
68813;DHT22;55808;48.112;11.552;2023-03-21T11:06:57;13.70;99.90
68813;DHT22;55808;48.112;11.552;2023-03-21T11:09:24;14.10;99.90
68813;DHT22;55808;48.112;11.552;2023-03-21T11:11:52;14.50;99.90
68813;DHT22;55808;48.112;11.552;2023-03-21T11:14:25;15.10;99.90
68813;DHT22;55808;48.112;11.552;2023-03-21T11:16:51;15.50;99.90
68813;DHT22;55808;48.112;11.552;2023-03-21T11:19:17;16.10;99.90
68813;DHT22;55808;48.112;11.552;2023-03-21T11:21:43;16.30;99.90
68813;DHT22;55808;48.112;11.552;2023-03-21T11:24:13;16.20;99.90
68813;DHT22;55808;48.112;11.552;2023-03-21T11:26:40;17.10;99.90
68813;DHT22;55808;48.112;11.552;2023-03-21T11:31:40;17.50;99.70
68813;DHT22;55808;48.112;11.552;2023-03-21T11:34:06;17.30;98.00
68813;DHT22;55808;48.112;11.552;2023-03-21T11:36:33;17.30;99.90
68813;DHT22;55808;48.112;11.552;2023-03-21T11:39:02;17.80;97.60
68813;DHT22;55808;48.112;11.552;2023-03-21T11:41:36;18.40;99.60
68813;DHT22;55808;48.112;11.552;2023-03-21T11:44:03;19.50;97.80
68813;DHT22;55808;48.112;11.552;2023-03-21T11:46:30;19.60;94.50
68813;DHT22;55808;48.112;11.552;2023-03-21T11:48:56;18.30;95.60
68813;DHT22;55808;48.112;11.552;2023-03-21T11:54:16;18.30;94.70
68813;DHT22;55808;48.112;11.552;2023-03-21T11:56:49;20.00;95.60
68813;DHT22;55808;48.112;11.552;2023-03-21T12:02:02;21.00;88.40
68813;DHT22;55808;48.112;11.552;2023-03-21T12:04:38;22.20;87.80
68813;DHT22;55808;48.112;11.552;2023-03-21T12:07:18;23.10;86.00
68813;DHT22;55808;48.112;11.552;2023-03-21T12:10:10;23.10;84.30
68813;DHT22;55808;48.112;11.552;2023-03-21T12:12:37;23.50;82.90
68813;DHT22;55808;48.112;11.552;2023-03-21T12:15:18;23.00;76.30
68813;DHT22;55808;48.112;11.552;2023-03-21T12:17:47;22.60;75.40
68813;DHT22;55808;48.112;11.552;2023-03-21T12:26:02;22.00;77.50
68813;DHT22;55808;48.112;11.552;2023-03-21T12:33:56;21.70;72.00
68813;DHT22;55808;48.112;11.552;2023-03-21T12:41:38;23.40;72.70
68813;DHT22;55808;48.112;11.552;2023-03-21T12:44:11;21.70;68.00
68813;DHT22;55808;48.112;11.552;2023-03-21T12:46:38;21.90;77.80
68813;DHT22;55808;48.112;11.552;2023-03-21T12:49:08;22.40;69.50
68813;DHT22;55808;48.112;11.552;2023-03-21T12:51:39;22.20;72.30
68813;DHT22;55808;48.112;11.552;2023-03-21T12:54:20;22.60;67.50
68813;DHT22;55808;48.112;11.552;2023-03-21T12:56:49;22.40;68.30
68813;DHT22;55808;48.112;11.552;2023-03-21T12:59:34;22.30;69.10
68813;DHT22;55808;48.112;11.552;2023-03-21T13:02:11;22.70;66.90
68813;DHT22;55808;48.112;11.552;2023-03-21T13:07:12;21.20;63.20
68813;DHT22;55808;48.112;11.552;2023-03-21T13:09:40;20.50;65.60
68813;DHT22;55808;48.112;11.552;2023-03-21T13:12:18;21.00;66.20
68813;DHT22;55808;48.112;11.552;2023-03-21T13:17:28;22.10;67.10
68813;DHT22;55808;48.112;11.552;2023-03-21T13:19:57;21.90;66.20
68813;DHT22;55808;48.112;11.552;2023-03-21T13:22:29;20.00;67.20
68813;DHT22;55808;48.112;11.552;2023-03-21T13:24:58;18.90;69.40
68813;DHT22;55808;48.112;11.552;2023-03-21T13:27:30;18.70;72.30
68813;DHT22;55808;48.112;11.552;2023-03-21T13:32:27;18.00;75.30
68813;DHT22;55808;48.112;11.552;2023-03-21T13:35:12;17.60;73.90
68813;DHT22;55808;48.112;11.552;2023-03-21T13:37:38;17.20;73.90
68813;DHT22;55808;48.112;11.552;2023-03-21T13:40:06;17.10;77.20
68813;DHT22;55808;48.112;11.552;2023-03-21T13:42:42;17.10;75.40
68813;DHT22;55808;48.112;11.552;2023-03-21T13:45:21;17.10;74.00
68813;DHT22;55808;48.112;11.552;2023-03-21T13:55:29;16.50;73.00
68813;DHT22;55808;48.112;11.552;2023-03-21T13:57:55;16.90;73.00
68813;DHT22;55808;48.112;11.552;2023-03-21T14:02:52;18.30;71.10
68813;DHT22;55808;48.112;11.552;2023-03-21T14:05:21;19.60;71.00
68813;DHT22;55808;48.112;11.552;2023-03-21T14:07:47;20.20;71.30
68813;DHT22;55808;48.112;11.552;2023-03-21T14:10:17;20.60;68.60
68813;DHT22;55808;48.112;11.552;2023-03-21T14:12:44;19.50;69.00
68813;DHT22;55808;48.112;11.552;2023-03-21T14:17:47;18.00;69.20
68813;DHT22;55808;48.112;11.552;2023-03-21T14:20:21;17.60;67.40
68813;DHT22;55808;48.112;11.552;2023-03-21T14:22:48;17.30;69.60
68813;DHT22;55808;48.112;11.552;2023-03-21T14:25:15;17.00;70.30
68813;DHT22;55808;48.112;11.552;2023-03-21T14:27:42;16.60;74.20
68813;DHT22;55808;48.112;11.552;2023-03-21T14:30:19;16.50;74.20
68813;DHT22;55808;48.112;11.552;2023-03-21T14:32:45;16.20;73.40
68813;DHT22;55808;48.112;11.552;2023-03-21T14:35:12;16.80;72.80
68813;DHT22;55808;48.112;11.552;2023-03-21T14:37:40;17.00;72.20
68813;DHT22;55808;48.112;11.552;2023-03-21T14:40:23;16.50;73.30
68813;DHT22;55808;48.112;11.552;2023-03-21T14:42:50;16.80;76.30
68813;DHT22;55808;48.112;11.552;2023-03-21T14:45:18;17.50;74.10
68813;DHT22;55808;48.112;11.552;2023-03-21T14:47:53;17.50;70.50
68813;DHT22;55808;48.112;11.552;2023-03-21T14:50:18;17.40;72.00
68813;DHT22;55808;48.112;11.552;2023-03-21T14:52:45;17.20;72.60
68813;DHT22;55808;48.112;11.552;2023-03-21T14:55:13;16.60;73.10
68813;DHT22;55808;48.112;11.552;2023-03-21T14:57:39;16.60;73.80
68813;DHT22;55808;48.112;11.552;2023-03-21T15:00:06;16.50;73.90
68813;DHT22;55808;48.112;11.552;2023-03-21T15:02:39;16.10;72.30
68813;DHT22;55808;48.112;11.552;2023-03-21T15:05:09;15.80;74.10
68813;DHT22;55808;48.112;11.552;2023-03-21T15:07:35;15.70;75.10
68813;DHT22;55808;48.112;11.552;2023-03-21T15:10:06;15.60;75.20
68813;DHT22;55808;48.112;11.552;2023-03-21T15:12:32;15.40;74.00
68813;DHT22;55808;48.112;11.552;2023-03-21T15:14:58;15.40;75.10
68813;DHT22;55808;48.112;11.552;2023-03-21T15:17:23;15.30;76.40
68813;DHT22;55808;48.112;11.552;2023-03-21T15:19:50;15.20;76.30
68813;DHT22;55808;48.112;11.552;2023-03-21T15:22:36;15.10;76.80
68813;DHT22;55808;48.112;11.552;2023-03-21T15:25:03;15.20;77.10
68813;DHT22;55808;48.112;11.552;2023-03-21T15:27:31;15.10;77.80
68813;DHT22;55808;48.112;11.552;2023-03-21T15:29:57;15.00;78.10
68813;DHT22;55808;48.112;11.552;2023-03-21T15:32:24;15.10;79.60
68813;DHT22;55808;48.112;11.552;2023-03-21T15:34:50;15.00;79.20
68813;DHT22;55808;48.112;11.552;2023-03-21T15:37:20;15.00;82.70
68813;DHT22;55808;48.112;11.552;2023-03-21T15:39:46;15.00;80.70
68813;DHT22;55808;48.112;11.552;2023-03-21T15:44:46;14.80;81.20
68813;DHT22;55808;48.112;11.552;2023-03-21T15:47:13;14.70;81.60
68813;DHT22;55808;48.112;11.552;2023-03-21T15:49:39;14.50;81.80
68813;DHT22;55808;48.112;11.552;2023-03-21T15:54:41;14.50;84.00
68813;DHT22;55808;48.112;11.552;2023-03-21T16:00:11;14.50;84.00
68813;DHT22;55808;48.112;11.552;2023-03-21T16:02:42;14.40;84.50
68813;DHT22;55808;48.112;11.552;2023-03-21T16:05:18;14.40;86.00
68813;DHT22;55808;48.112;11.552;2023-03-21T16:07:49;14.40;86.60
68813;DHT22;55808;48.112;11.552;2023-03-21T16:10:25;14.40;86.20
68813;DHT22;55808;48.112;11.552;2023-03-21T16:12:52;14.40;86.50
68813;DHT22;55808;48.112;11.552;2023-03-21T16:15:17;14.30;87.20
68813;DHT22;55808;48.112;11.552;2023-03-21T16:17:47;14.30;87.40
68813;DHT22;55808;48.112;11.552;2023-03-21T16:20:20;14.20;88.40
68813;DHT22;55808;48.112;11.552;2023-03-21T16:22:46;14.20;89.30
68813;DHT22;55808;48.112;11.552;2023-03-21T16:25:12;14.10;87.80
68813;DHT22;55808;48.112;11.552;2023-03-21T16:27:37;14.10;88.40
68813;DHT22;55808;48.112;11.552;2023-03-21T16:30:03;14.10;89.10
68813;DHT22;55808;48.112;11.552;2023-03-21T16:32:29;14.10;89.60
68813;DHT22;55808;48.112;11.552;2023-03-21T16:34:54;14.10;90.80
68813;DHT22;55808;48.112;11.552;2023-03-21T16:37:20;14.10;90.60
68813;DHT22;55808;48.112;11.552;2023-03-21T16:39:46;14.10;90.50
68813;DHT22;55808;48.112;11.552;2023-03-21T16:42:11;14.10;90.00
68813;DHT22;55808;48.112;11.552;2023-03-21T16:44:37;14.00;90.30
68813;DHT22;55808;48.112;11.552;2023-03-21T16:47:16;14.00;90.50
68813;DHT22;55808;48.112;11.552;2023-03-21T16:49:42;14.00;92.00
68813;DHT22;55808;48.112;11.552;2023-03-21T16:52:09;14.00;91.30
68813;DHT22;55808;48.112;11.552;2023-03-21T16:54:35;14.00;90.80
68813;DHT22;55808;48.112;11.552;2023-03-21T16:57:01;13.90;91.60
68813;DHT22;55808;48.112;11.552;2023-03-21T16:59:28;13.90;91.50
68813;DHT22;55808;48.112;11.552;2023-03-21T17:01:54;13.90;91.20
68813;DHT22;55808;48.112;11.552;2023-03-21T17:04:20;13.90;91.20